sensor_id;sensor_type;location;lat;lon;timestamp;pressure;altitude;pressure_sealevel;temperature;humidity
54808;BME280;40708;50.364;7.550;2022-09-09T00:00:25;99858.03;;;16.00;100.00
54808;BME280;40708;50.364;7.550;2022-09-09T00:03:02;99859.09;;;15.94;100.00
54808;BME280;40708;50.364;7.550;2022-09-09T00:05:39;99861.06;;;15.88;100.00
54808;BME280;40708;50.364;7.550;2022-09-09T00:08:12;99863.75;;;15.88;100.00
54808;BME280;40708;50.364;7.550;2022-09-09T00:10:40;99864.97;;;15.78;100.00
54808;BME280;40708;50.364;7.550;2022-09-09T00:13:22;99862.31;;;15.76;100.00
54808;BME280;40708;50.364;7.550;2022-09-09T00:16:04;99850.66;;;15.79;100.00
54808;BME280;40708;50.364;7.550;2022-09-09T00:18:54;99855.25;;;15.74;100.00
54808;BME280;40708;50.364;7.550;2022-09-09T00:21:37;99849.00;;;15.75;100.00
54808;BME280;40708;50.364;7.550;2022-09-09T00:24:42;99850.84;;;15.73;100.00
54808;BME280;40708;50.364;7.550;2022-09-09T00:27:33;99850.03;;;15.71;100.00
54808;BME280;40708;50.364;7.550;2022-09-09T00:32:46;99848.13;;;15.74;100.00
54808;BME280;40708;50.364;7.550;2022-09-09T00:35:17;99847.13;;;15.78;100.00
54808;BME280;40708;50.364;7.550;2022-09-09T00:37:44;99836.00;;;15.92;100.00
54808;BME280;40708;50.364;7.550;2022-09-09T00:40:41;99845.53;;;16.00;100.00
54808;BME280;40708;50.364;7.550;2022-09-09T00:43:28;99838.97;;;16.11;100.00
54808;BME280;40708;50.364;7.550;2022-09-09T00:48:41;99833.78;;;16.06;100.00
54808;BME280;40708;50.364;7.550;2022-09-09T00:51:20;99835.34;;;16.12;100.00
54808;BME280;40708;50.364;7.550;2022-09-09T00:57:12;99845.34;;;16.34;100.00
54808;BME280;40708;50.364;7.550;2022-09-09T01:02:19;99841.69;;;16.37;100.00
54808;BME280;40708;50.364;7.550;2022-09-09T01:04:47;99832.91;;;16.32;100.00
54808;BME280;40708;50.364;7.550;2022-09-09T01:07:18;99839.25;;;16.29;100.00
54808;BME280;40708;50.364;7.550;2022-09-09T01:10:11;99837.94;;;16.42;100.00
54808;BME280;40708;50.364;7.550;2022-09-09T01:12:41;99832.56;;;16.42;100.00
54808;BME280;40708;50.364;7.550;2022-09-09T01:15:11;99833.28;;;16.47;100.00
54808;BME280;40708;50.364;7.550;2022-09-09T01:18:11;99832.28;;;16.51;100.00
54808;BME280;40708;50.364;7.550;2022-09-09T01:28:29;99820.41;;;16.32;100.00
54808;BME280;40708;50.364;7.550;2022-09-09T01:30:56;99821.34;;;16.31;100.00
54808;BME280;40708;50.364;7.550;2022-09-09T01:33:22;99824.06;;;16.30;100.00
54808;BME280;40708;50.364;7.550;2022-09-09T01:35:58;99826.06;;;16.23;100.00
54808;BME280;40708;50.364;7.550;2022-09-09T01:38:28;99835.16;;;16.18;100.00
54808;BME280;40708;50.364;7.550;2022-09-09T01:40:54;99841.59;;;16.12;100.00
54808;BME280;40708;50.364;7.550;2022-09-09T01:43:21;99845.28;;;16.08;100.00
54808;BME280;40708;50.364;7.550;2022-09-09T01:45:49;99847.28;;;16.01;100.00
54808;BME280;40708;50.364;7.550;2022-09-09T01:48:18;99850.09;;;15.97;100.00
54808;BME280;40708;50.364;7.550;2022-09-09T01:50:43;99844.78;;;15.95;100.00
54808;BME280;40708;50.364;7.550;2022-09-09T01:53:09;99853.69;;;15.96;100.00
54808;BME280;40708;50.364;7.550;2022-09-09T01:55:40;99852.94;;;15.92;100.00
54808;BME280;40708;50.364;7.550;2022-09-09T02:00:46;99870.88;;;15.87;100.00
54808;BME280;40708;50.364;7.550;2022-09-09T02:03:27;99859.34;;;15.87;100.00
54808;BME280;40708;50.364;7.550;2022-09-09T02:09:04;99865.66;;;15.84;100.00
54808;BME280;40708;50.364;7.550;2022-09-09T02:11:30;99863.00;;;15.83;100.00
54808;BME280;40708;50.364;7.550;2022-09-09T02:14:06;99855.06;;;15.80;100.00
54808;BME280;40708;50.364;7.550;2022-09-09T02:16:59;99859.63;;;15.76;100.00
54808;BME280;40708;50.364;7.550;2022-09-09T02:19:31;99857.19;;;15.69;100.00
54808;BME280;40708;50.364;7.550;2022-09-09T02:21:59;99862.06;;;15.55;100.00
54808;BME280;40708;50.364;7.550;2022-09-09T02:24:27;99855.81;;;15.56;100.00
54808;BME280;40708;50.364;7.550;2022-09-09T02:26:54;99850.59;;;15.51;100.00
54808;BME280;40708;50.364;7.550;2022-09-09T02:29:29;99847.19;;;15.44;100.00
54808;BME280;40708;50.364;7.550;2022-09-09T02:31:58;99846.22;;;15.48;100.00
54808;BME280;40708;50.364;7.550;2022-09-09T02:34:27;99850.53;;;15.54;100.00
54808;BME280;40708;50.364;7.550;2022-09-09T02:36:54;99846.25;;;15.47;100.00
54808;BME280;40708;50.364;7.550;2022-09-09T02:39:22;99849.84;;;15.44;100.00
54808;BME280;40708;50.364;7.550;2022-09-09T02:41:47;99848.94;;;15.45;100.00
54808;BME280;40708;50.364;7.550;2022-09-09T02:44:17;99845.25;;;15.51;100.00
54808;BME280;40708;50.364;7.550;2022-09-09T02:47:00;99842.72;;;15.45;100.00
54808;BME280;40708;50.364;7.550;2022-09-09T02:55:23;99842.16;;;15.34;100.00
54808;BME280;40708;50.364;7.550;2022-09-09T02:57:50;99836.81;;;15.34;100.00
54808;BME280;40708;50.364;7.550;2022-09-09T03:00:22;99837.34;;;15.46;100.00
54808;BME280;40708;50.364;7.550;2022-09-09T03:02:49;99845.16;;;15.54;100.00
54808;BME280;40708;50.364;7.550;2022-09-09T03:05:15;99847.63;;;15.62;100.00
54808;BME280;40708;50.364;7.550;2022-09-09T03:07:40;99837.75;;;15.64;100.00
54808;BME280;40708;50.364;7.550;2022-09-09T03:10:06;99838.72;;;15.61;100.00
54808;BME280;40708;50.364;7.550;2022-09-09T03:12:31;99834.88;;;15.70;100.00
54808;BME280;40708;50.364;7.550;2022-09-09T03:14:58;99843.00;;;15.67;100.00
54808;BME280;40708;50.364;7.550;2022-09-09T03:17:24;99850.84;;;15.73;100.00
54808;BME280;40708;50.364;7.550;2022-09-09T03:19:49;99852.56;;;15.75;100.00
54808;BME280;40708;50.364;7.550;2022-09-09T03:22:17;99839.75;;;15.85;100.00
54808;BME280;40708;50.364;7.550;2022-09-09T03:24:42;99839.66;;;15.89;100.00
54808;BME280;40708;50.364;7.550;2022-09-09T03:27:08;99840.38;;;15.94;100.00
54808;BME280;40708;50.364;7.550;2022-09-09T03:29:33;99840.13;;;16.02;100.00
54808;BME280;40708;50.364;7.550;2022-09-09T03:31:59;99836.28;;;16.11;100.00
54808;BME280;40708;50.364;7.550;2022-09-09T03:34:24;99834.41;;;16.14;100.00
54808;BME280;40708;50.364;7.550;2022-09-09T03:36:49;99835.31;;;16.13;100.00
54808;BME280;40708;50.364;7.550;2022-09-09T03:39:15;99843.25;;;16.16;100.00
54808;BME280;40708;50.364;7.550;2022-09-09T03:41:40;99843.88;;;16.24;100.00
54808;BME280;40708;50.364;7.550;2022-09-09T03:44:06;99847.44;;;16.25;100.00
54808;BME280;40708;50.364;7.550;2022-09-09T03:46:31;99838.63;;;16.21;100.00
54808;BME280;40708;50.364;7.550;2022-09-09T03:48:57;99849.16;;;16.26;100.00
54808;BME280;40708;50.364;7.550;2022-09-09T03:51:22;99844.66;;;16.28;100.00
54808;BME280;40708;50.364;7.550;2022-09-09T03:53:47;99841.38;;;16.20;100.00
54808;BME280;40708;50.364;7.550;2022-09-09T03:56:13;99846.91;;;16.14;100.00
54808;BME280;40708;50.364;7.550;2022-09-09T03:58:38;99850.56;;;16.11;100.00
54808;BME280;40708;50.364;7.550;2022-09-09T04:01:07;99849.84;;;16.04;100.00
54808;BME280;40708;50.364;7.550;2022-09-09T04:03:35;99839.41;;;15.97;100.00
54808;BME280;40708;50.364;7.550;2022-09-09T04:06:02;99835.91;;;15.95;100.00
54808;BME280;40708;50.364;7.550;2022-09-09T04:08:29;99841.44;;;15.89;100.00
54808;BME280;40708;50.364;7.550;2022-09-09T04:10:56;99839.84;;;15.82;100.00
54808;BME280;40708;50.364;7.550;2022-09-09T04:13:23;99842.69;;;15.77;100.00
54808;BME280;40708;50.364;7.550;2022-09-09T04:15:57;99849.97;;;15.72;100.00
54808;BME280;40708;50.364;7.550;2022-09-09T04:18:23;99855.50;;;15.66;100.00
54808;BME280;40708;50.364;7.550;2022-09-09T04:20:50;99858.34;;;15.60;100.00
54808;BME280;40708;50.364;7.550;2022-09-09T04:23:17;99857.69;;;15.52;100.00
54808;BME280;40708;50.364;7.550;2022-09-09T04:25:48;99859.34;;;15.56;100.00
54808;BME280;40708;50.364;7.550;2022-09-09T04:28:15;99858.56;;;15.53;100.00
54808;BME280;40708;50.364;7.550;2022-09-09T04:30:41;99860.91;;;15.63;100.00
54808;BME280;40708;50.364;7.550;2022-09-09T04:33:07;99868.91;;;15.65;100.00
54808;BME280;40708;50.364;7.550;2022-09-09T04:35:33;99875.22;;;15.62;100.00
54808;BME280;40708;50.364;7.550;2022-09-09T04:37:58;99879.63;;;15.65;100.00
54808;BME280;40708;50.364;7.550;2022-09-09T04:40:23;99874.25;;;15.65;100.00
54808;BME280;40708;50.364;7.550;2022-09-09T04:42:49;99867.78;;;15.73;100.00
54808;BME280;40708;50.364;7.550;2022-09-09T04:45:15;99873.22;;;15.70;100.00
54808;BME280;40708;50.364;7.550;2022-09-09T04:47:41;99877.69;;;15.68;100.00
54808;BME280;40708;50.364;7.550;2022-09-09T04:50:07;99875.03;;;15.68;100.00
54808;BME280;40708;50.364;7.550;2022-09-09T04:52:36;99873.88;;;15.78;100.00
54808;BME280;40708;50.364;7.550;2022-09-09T04:55:02;99883.50;;;15.84;100.00
54808;BME280;40708;50.364;7.550;2022-09-09T04:57:27;99879.69;;;15.92;100.00
54808;BME280;40708;50.364;7.550;2022-09-09T04:59:53;99881.28;;;15.98;100.00
54808;BME280;40708;50.364;7.550;2022-09-09T05:02:19;99875.66;;;16.07;100.00
54808;BME280;40708;50.364;7.550;2022-09-09T05:04:44;99871.03;;;16.12;100.00
54808;BME280;40708;50.364;7.550;2022-09-09T05:07:09;99870.94;;;16.15;100.00
54808;BME280;40708;50.364;7.550;2022-09-09T05:09:35;99871.88;;;16.14;100.00
54808;BME280;40708;50.364;7.550;2022-09-09T05:12:01;99870.00;;;16.16;100.00
54808;BME280;40708;50.364;7.550;2022-09-09T05:14:28;99868.06;;;16.21;100.00
54808;BME280;40708;50.364;7.550;2022-09-09T05:16:54;99873.34;;;16.23;100.00
54808;BME280;40708;50.364;7.550;2022-09-09T05:19:20;99870.75;;;16.21;100.00
54808;BME280;40708;50.364;7.550;2022-09-09T05:21:46;99875.31;;;16.18;100.00
54808;BME280;40708;50.364;7.550;2022-09-09T05:24:11;99875.41;;;16.15;100.00
54808;BME280;40708;50.364;7.550;2022-09-09T05:26:36;99869.19;;;16.14;100.00
54808;BME280;40708;50.364;7.550;2022-09-09T05:29:02;99868.22;;;16.17;100.00
54808;BME280;40708;50.364;7.550;2022-09-09T05:31:29;99863.59;;;16.22;100.00
54808;BME280;40708;50.364;7.550;2022-09-09T05:33:55;99871.63;;;16.22;100.00
54808;BME280;40708;50.364;7.550;2022-09-09T05:36:21;99875.06;;;16.25;100.00
54808;BME280;40708;50.364;7.550;2022-09-09T05:38:47;99876.72;;;16.29;100.00
54808;BME280;40708;50.364;7.550;2022-09-09T05:41:13;99878.25;;;16.38;100.00
54808;BME280;40708;50.364;7.550;2022-09-09T05:43:43;99880.94;;;16.65;100.00
54808;BME280;40708;50.364;7.550;2022-09-09T05:46:23;99873.97;;;16.86;100.00
54808;BME280;40708;50.364;7.550;2022-09-09T05:48:50;99880.72;;;16.98;100.00
54808;BME280;40708;50.364;7.550;2022-09-09T05:51:21;99861.41;;;17.13;100.00
54808;BME280;40708;50.364;7.550;2022-09-09T05:53:47;99866.00;;;17.34;100.00
54808;BME280;40708;50.364;7.550;2022-09-09T05:56:24;99864.84;;;17.89;100.00
54808;BME280;40708;50.364;7.550;2022-09-09T05:58:53;99861.34;;;18.32;100.00
54808;BME280;40708;50.364;7.550;2022-09-09T06:01:22;99851.94;;;18.43;100.00
54808;BME280;40708;50.364;7.550;2022-09-09T06:03:49;99846.75;;;18.39;100.00
54808;BME280;40708;50.364;7.550;2022-09-09T06:06:17;99850.50;;;18.35;100.00
54808;BME280;40708;50.364;7.550;2022-09-09T06:08:45;99858.06;;;18.25;100.00
54808;BME280;40708;50.364;7.550;2022-09-09T06:11:17;99846.50;;;18.23;100.00
54808;BME280;40708;50.364;7.550;2022-09-09T06:13:43;99853.13;;;18.15;100.00
54808;BME280;40708;50.364;7.550;2022-09-09T06:16:10;99854.72;;;18.19;100.00
54808;BME280;40708;50.364;7.550;2022-09-09T06:18:37;99858.84;;;18.06;100.00
54808;BME280;40708;50.364;7.550;2022-09-09T06:21:04;99862.41;;;18.06;100.00
54808;BME280;40708;50.364;7.550;2022-09-09T06:23:31;99856.69;;;17.92;100.00
54808;BME280;40708;50.364;7.550;2022-09-09T06:26:09;99860.88;;;18.22;100.00
54808;BME280;40708;50.364;7.550;2022-09-09T06:28:36;99856.56;;;18.40;100.00
54808;BME280;40708;50.364;7.550;2022-09-09T06:31:06;99852.25;;;18.79;100.00
54808;BME280;40708;50.364;7.550;2022-09-09T06:33:34;99838.63;;;19.24;100.00
54808;BME280;40708;50.364;7.550;2022-09-09T06:36:00;99833.53;;;19.77;100.00
54808;BME280;40708;50.364;7.550;2022-09-09T06:38:26;99832.38;;;20.01;100.00
54808;BME280;40708;50.364;7.550;2022-09-09T06:40:57;99830.72;;;19.80;100.00
54808;BME280;40708;50.364;7.550;2022-09-09T06:43:24;99833.69;;;20.11;100.00
54808;BME280;40708;50.364;7.550;2022-09-09T06:46:00;99827.00;;;20.92;100.00
54808;BME280;40708;50.364;7.550;2022-09-09T06:48:26;99827.47;;;20.65;100.00
54808;BME280;40708;50.364;7.550;2022-09-09T06:53:27;99836.50;;;20.82;100.00
54808;BME280;40708;50.364;7.550;2022-09-09T06:55:53;99831.34;;;20.94;100.00
54808;BME280;40708;50.364;7.550;2022-09-09T06:58:18;99829.41;;;21.65;100.00
54808;BME280;40708;50.364;7.550;2022-09-09T07:00:43;99826.03;;;22.25;100.00
54808;BME280;40708;50.364;7.550;2022-09-09T07:03:10;99815.81;;;22.30;100.00
54808;BME280;40708;50.364;7.550;2022-09-09T07:05:36;99822.19;;;22.14;100.00
54808;BME280;40708;50.364;7.550;2022-09-09T07:08:01;99822.53;;;22.39;100.00
54808;BME280;40708;50.364;7.550;2022-09-09T07:10:27;99809.16;;;22.83;100.00
54808;BME280;40708;50.364;7.550;2022-09-09T07:12:52;99821.34;;;22.59;100.00
54808;BME280;40708;50.364;7.550;2022-09-09T07:15:18;99817.44;;;22.64;100.00
54808;BME280;40708;50.364;7.550;2022-09-09T07:17:47;99817.94;;;22.86;100.00
54808;BME280;40708;50.364;7.550;2022-09-09T07:20:13;99819.81;;;23.00;100.00
54808;BME280;40708;50.364;7.550;2022-09-09T07:22:39;99822.59;;;22.37;100.00
54808;BME280;40708;50.364;7.550;2022-09-09T07:25:05;99829.75;;;22.07;100.00
54808;BME280;40708;50.364;7.550;2022-09-09T07:27:31;99829.03;;;21.88;100.00
54808;BME280;40708;50.364;7.550;2022-09-09T07:29:56;99827.91;;;21.92;100.00
54808;BME280;40708;50.364;7.550;2022-09-09T07:32:22;99831.84;;;22.18;100.00
54808;BME280;40708;50.364;7.550;2022-09-09T07:34:47;99835.50;;;22.48;100.00
54808;BME280;40708;50.364;7.550;2022-09-09T07:37:15;99828.44;;;22.61;100.00
54808;BME280;40708;50.364;7.550;2022-09-09T07:39:41;99826.53;;;23.81;100.00
54808;BME280;40708;50.364;7.550;2022-09-09T07:42:06;99829.59;;;23.46;100.00
54808;BME280;40708;50.364;7.550;2022-09-09T07:44:32;99816.34;;;23.70;100.00
54808;BME280;40708;50.364;7.550;2022-09-09T07:47:01;99826.53;;;23.23;100.00
54808;BME280;40708;50.364;7.550;2022-09-09T07:49:26;99828.47;;;23.21;100.00
54808;BME280;40708;50.364;7.550;2022-09-09T07:51:52;99828.56;;;22.28;100.00
54808;BME280;40708;50.364;7.550;2022-09-09T07:54:19;99850.34;;;22.25;100.00
54808;BME280;40708;50.364;7.550;2022-09-09T07:56:50;99846.66;;;21.78;100.00
54808;BME280;40708;50.364;7.550;2022-09-09T07:59:15;99852.66;;;22.63;100.00
54808;BME280;40708;50.364;7.550;2022-09-09T08:01:47;99849.44;;;22.56;100.00
54808;BME280;40708;50.364;7.550;2022-09-09T08:04:14;99851.13;;;22.74;100.00
54808;BME280;40708;50.364;7.550;2022-09-09T08:06:44;99860.16;;;22.89;100.00
54808;BME280;40708;50.364;7.550;2022-09-09T08:09:11;99845.84;;;23.46;100.00
54808;BME280;40708;50.364;7.550;2022-09-09T08:11:38;99851.91;;;23.06;100.00
54808;BME280;40708;50.364;7.550;2022-09-09T08:14:03;99844.72;;;22.75;100.00
54808;BME280;40708;50.364;7.550;2022-09-09T08:16:32;99847.88;;;22.52;100.00
54808;BME280;40708;50.364;7.550;2022-09-09T08:18:58;99850.59;;;22.68;100.00
54808;BME280;40708;50.364;7.550;2022-09-09T08:21:26;99849.19;;;22.61;100.00
54808;BME280;40708;50.364;7.550;2022-09-09T08:23:53;99857.66;;;22.54;100.00
54808;BME280;40708;50.364;7.550;2022-09-09T08:26:21;99862.81;;;22.43;100.00
54808;BME280;40708;50.364;7.550;2022-09-09T08:28:48;99863.22;;;22.51;100.00
54808;BME280;40708;50.364;7.550;2022-09-09T08:31:17;99874.56;;;22.42;100.00
54808;BME280;40708;50.364;7.550;2022-09-09T08:33:43;99865.13;;;22.18;100.00
54808;BME280;40708;50.364;7.550;2022-09-09T08:36:18;99856.22;;;22.94;100.00
54808;BME280;40708;50.364;7.550;2022-09-09T08:38:47;99858.56;;;23.00;100.00
54808;BME280;40708;50.364;7.550;2022-09-09T08:41:30;99869.97;;;23.05;100.00
54808;BME280;40708;50.364;7.550;2022-09-09T08:44:25;99864.63;;;23.20;100.00
54808;BME280;40708;50.364;7.550;2022-09-09T08:52:41;99865.59;;;23.33;100.00
54808;BME280;40708;50.364;7.550;2022-09-09T08:57:50;99875.47;;;22.74;100.00
54808;BME280;40708;50.364;7.550;2022-09-09T09:00:17;99866.56;;;22.41;100.00
54808;BME280;40708;50.364;7.550;2022-09-09T09:05:31;99886.25;;;21.62;100.00
54808;BME280;40708;50.364;7.550;2022-09-09T09:10:49;99882.47;;;21.49;100.00
54808;BME280;40708;50.364;7.550;2022-09-09T09:13:20;99882.63;;;21.28;100.00
54808;BME280;40708;50.364;7.550;2022-09-09T09:15:55;99872.00;;;21.08;100.00
54808;BME280;40708;50.364;7.550;2022-09-09T09:18:23;99874.63;;;21.44;100.00
54808;BME280;40708;50.364;7.550;2022-09-09T09:23:56;99871.66;;;21.49;100.00
54808;BME280;40708;50.364;7.550;2022-09-09T09:26:25;99872.47;;;21.33;100.00
54808;BME280;40708;50.364;7.550;2022-09-09T09:28:55;99855.19;;;21.87;100.00
54808;BME280;40708;50.364;7.550;2022-09-09T09:31:22;99858.31;;;21.63;100.00
54808;BME280;40708;50.364;7.550;2022-09-09T09:33:50;99861.25;;;21.91;100.00
54808;BME280;40708;50.364;7.550;2022-09-09T09:36:16;99866.09;;;22.48;100.00
54808;BME280;40708;50.364;7.550;2022-09-09T09:38:56;99867.63;;;23.29;100.00
54808;BME280;40708;50.364;7.550;2022-09-09T09:41:41;99845.41;;;24.10;100.00
54808;BME280;40708;50.364;7.550;2022-09-09T09:44:29;99854.84;;;24.46;100.00
54808;BME280;40708;50.364;7.550;2022-09-09T09:47:14;99850.06;;;24.49;100.00
54808;BME280;40708;50.364;7.550;2022-09-09T09:49:54;99871.41;;;23.85;100.00
54808;BME280;40708;50.364;7.550;2022-09-09T09:52:25;99838.13;;;23.97;100.00
54808;BME280;40708;50.364;7.550;2022-09-09T09:54:52;99846.47;;;23.36;100.00
54808;BME280;40708;50.364;7.550;2022-09-09T09:57:23;99829.75;;;24.42;100.00
54808;BME280;40708;50.364;7.550;2022-09-09T10:00:00;99826.25;;;25.33;100.00
54808;BME280;40708;50.364;7.550;2022-09-09T10:02:37;99839.09;;;24.92;100.00
54808;BME280;40708;50.364;7.550;2022-09-09T10:05:26;99820.59;;;25.36;100.00
54808;BME280;40708;50.364;7.550;2022-09-09T10:08:26;99846.50;;;24.75;100.00
54808;BME280;40708;50.364;7.550;2022-09-09T10:11:15;99846.31;;;24.78;100.00
54808;BME280;40708;50.364;7.550;2022-09-09T10:14:03;99843.81;;;25.15;100.00
54808;BME280;40708;50.364;7.550;2022-09-09T10:16:56;99842.91;;;24.89;100.00
54808;BME280;40708;50.364;7.550;2022-09-09T10:19:34;99837.56;;;25.39;100.00
54808;BME280;40708;50.364;7.550;2022-09-09T10:22:25;99842.72;;;25.17;100.00
54808;BME280;40708;50.364;7.550;2022-09-09T10:28:04;99834.97;;;24.72;100.00
54808;BME280;40708;50.364;7.550;2022-09-09T10:30:43;99828.66;;;25.37;100.00
54808;BME280;40708;50.364;7.550;2022-09-09T10:33:22;99834.03;;;25.25;100.00
54808;BME280;40708;50.364;7.550;2022-09-09T10:36:13;99837.38;;;25.03;100.00
54808;BME280;40708;50.364;7.550;2022-09-09T10:38:48;99819.50;;;25.38;100.00
54808;BME280;40708;50.364;7.550;2022-09-09T10:41:44;99822.97;;;25.15;100.00
54808;BME280;40708;50.364;7.550;2022-09-09T10:44:37;99828.06;;;25.07;100.00
54808;BME280;40708;50.364;7.550;2022-09-09T10:47:24;99824.59;;;24.78;100.00
54808;BME280;40708;50.364;7.550;2022-09-09T10:50:12;99827.38;;;25.81;100.00
54808;BME280;40708;50.364;7.550;2022-09-09T10:52:56;99830.06;;;25.43;100.00
54808;BME280;40708;50.364;7.550;2022-09-09T10:55:35;99830.75;;;25.72;100.00
54808;BME280;40708;50.364;7.550;2022-09-09T10:58:03;99839.13;;;24.51;100.00
54808;BME280;40708;50.364;7.550;2022-09-09T11:00:39;99848.53;;;24.45;100.00
54808;BME280;40708;50.364;7.550;2022-09-09T11:03:05;99853.94;;;24.59;100.00
54808;BME280;40708;50.364;7.550;2022-09-09T11:06:05;99836.22;;;24.54;100.00
54808;BME280;40708;50.364;7.550;2022-09-09T11:08:35;99832.38;;;24.70;100.00
54808;BME280;40708;50.364;7.550;2022-09-09T11:11:03;99839.97;;;24.92;100.00
54808;BME280;40708;50.364;7.550;2022-09-09T11:13:47;99829.34;;;25.54;100.00
54808;BME280;40708;50.364;7.550;2022-09-09T11:18:41;99852.06;;;24.05;100.00
54808;BME280;40708;50.364;7.550;2022-09-09T11:21:16;99831.34;;;24.04;100.00
54808;BME280;40708;50.364;7.550;2022-09-09T11:23:49;99839.28;;;23.79;100.00
54808;BME280;40708;50.364;7.550;2022-09-09T11:26:35;99826.22;;;24.13;100.00
54808;BME280;40708;50.364;7.550;2022-09-09T11:29:24;99846.34;;;24.38;100.00
54808;BME280;40708;50.364;7.550;2022-09-09T11:32:16;99834.44;;;23.98;100.00
54808;BME280;40708;50.364;7.550;2022-09-09T11:40:16;99835.19;;;24.69;100.00
54808;BME280;40708;50.364;7.550;2022-09-09T11:42:42;99813.75;;;23.97;100.00
54808;BME280;40708;50.364;7.550;2022-09-09T11:45:43;99812.91;;;24.10;100.00
54808;BME280;40708;50.364;7.550;2022-09-09T11:48:02;99830.06;;;24.38;100.00
54808;BME280;40708;50.364;7.550;2022-09-09T11:50:30;99817.94;;;24.43;100.00
54808;BME280;40708;50.364;7.550;2022-09-09T11:53:17;99796.31;;;24.68;100.00
54808;BME280;40708;50.364;7.550;2022-09-09T11:55:46;99807.50;;;24.91;100.00
54808;BME280;40708;50.364;7.550;2022-09-09T12:00:42;99810.75;;;24.96;100.00
54808;BME280;40708;50.364;7.550;2022-09-09T12:03:45;99804.91;;;25.02;100.00
54808;BME280;40708;50.364;7.550;2022-09-09T12:06:15;99813.25;;;24.59;100.00
54808;BME280;40708;50.364;7.550;2022-09-09T12:08:45;99803.38;;;24.98;100.00
54808;BME280;40708;50.364;7.550;2022-09-09T12:11:11;99818.22;;;24.79;100.00
54808;BME280;40708;50.364;7.550;2022-09-09T12:13:37;99800.91;;;24.95;100.00
54808;BME280;40708;50.364;7.550;2022-09-09T12:16:02;99799.25;;;24.39;100.00
54808;BME280;40708;50.364;7.550;2022-09-09T12:18:37;99791.03;;;25.06;100.00
54808;BME280;40708;50.364;7.550;2022-09-09T12:21:19;99793.81;;;24.65;100.00
54808;BME280;40708;50.364;7.550;2022-09-09T12:23:54;99788.75;;;24.73;100.00
54808;BME280;40708;50.364;7.550;2022-09-09T12:26:32;99790.81;;;24.97;100.00
54808;BME280;40708;50.364;7.550;2022-09-09T12:31:58;99793.66;;;24.54;100.00
54808;BME280;40708;50.364;7.550;2022-09-09T12:37:27;99772.09;;;24.26;100.00
54808;BME280;40708;50.364;7.550;2022-09-09T12:39:56;99785.78;;;23.82;100.00
54808;BME280;40708;50.364;7.550;2022-09-09T12:42:22;99787.63;;;23.96;100.00
54808;BME280;40708;50.364;7.550;2022-09-09T12:45:02;99774.47;;;23.90;100.00
54808;BME280;40708;50.364;7.550;2022-09-09T12:50:19;99781.09;;;24.26;100.00
54808;BME280;40708;50.364;7.550;2022-09-09T12:52:47;99780.00;;;24.43;100.00
54808;BME280;40708;50.364;7.550;2022-09-09T12:55:25;99767.75;;;24.23;100.00
54808;BME280;40708;50.364;7.550;2022-09-09T12:57:52;99765.38;;;24.98;100.00
54808;BME280;40708;50.364;7.550;2022-09-09T13:00:23;99769.56;;;25.41;100.00
54808;BME280;40708;50.364;7.550;2022-09-09T13:05:19;99760.75;;;25.37;100.00
54808;BME280;40708;50.364;7.550;2022-09-09T13:07:45;99748.56;;;24.93;100.00
54808;BME280;40708;50.364;7.550;2022-09-09T13:10:12;99748.13;;;24.86;100.00
54808;BME280;40708;50.364;7.550;2022-09-09T13:12:37;99761.28;;;24.92;100.00
54808;BME280;40708;50.364;7.550;2022-09-09T13:15:03;99751.59;;;25.01;100.00
54808;BME280;40708;50.364;7.550;2022-09-09T13:17:29;99751.41;;;24.91;100.00
54808;BME280;40708;50.364;7.550;2022-09-09T13:19:55;99734.78;;;24.96;100.00
54808;BME280;40708;50.364;7.550;2022-09-09T13:24:46;99729.91;;;25.26;100.00
54808;BME280;40708;50.364;7.550;2022-09-09T13:29:53;99730.25;;;25.34;100.00
54808;BME280;40708;50.364;7.550;2022-09-09T13:32:24;99726.94;;;25.79;100.00
54808;BME280;40708;50.364;7.550;2022-09-09T13:34:51;99726.22;;;25.52;100.00
54808;BME280;40708;50.364;7.550;2022-09-09T13:37:28;99729.28;;;25.48;100.00
54808;BME280;40708;50.364;7.550;2022-09-09T13:39:55;99726.44;;;25.24;100.00
54808;BME280;40708;50.364;7.550;2022-09-09T13:42:26;99726.34;;;25.38;100.00
54808;BME280;40708;50.364;7.550;2022-09-09T13:44:52;99733.94;;;25.20;100.00
54808;BME280;40708;50.364;7.550;2022-09-09T13:47:20;99716.34;;;24.88;100.00
54808;BME280;40708;50.364;7.550;2022-09-09T13:49:46;99718.28;;;24.86;100.00
54808;BME280;40708;50.364;7.550;2022-09-09T13:52:14;99726.59;;;24.44;100.00
54808;BME280;40708;50.364;7.550;2022-09-09T13:54:41;99727.47;;;24.44;100.00
54808;BME280;40708;50.364;7.550;2022-09-09T13:57:15;99721.59;;;24.77;100.00
54808;BME280;40708;50.364;7.550;2022-09-09T13:59:41;99724.84;;;24.69;100.00
54808;BME280;40708;50.364;7.550;2022-09-09T14:02:07;99705.94;;;25.07;100.00
54808;BME280;40708;50.364;7.550;2022-09-09T14:04:32;99704.50;;;25.14;100.00
54808;BME280;40708;50.364;7.550;2022-09-09T14:07:00;99702.88;;;25.37;100.00
54808;BME280;40708;50.364;7.550;2022-09-09T14:09:26;99697.53;;;25.73;100.00
54808;BME280;40708;50.364;7.550;2022-09-09T14:11:51;99690.44;;;26.20;100.00
54808;BME280;40708;50.364;7.550;2022-09-09T14:14:16;99699.91;;;26.01;100.00
54808;BME280;40708;50.364;7.550;2022-09-09T14:16:41;99695.00;;;26.07;100.00
54808;BME280;40708;50.364;7.550;2022-09-09T14:19:08;99694.06;;;25.46;100.00
54808;BME280;40708;50.364;7.550;2022-09-09T14:21:34;99688.50;;;24.59;100.00
54808;BME280;40708;50.364;7.550;2022-09-09T14:23:59;99712.88;;;24.20;100.00
54808;BME280;40708;50.364;7.550;2022-09-09T14:26:25;99713.47;;;24.11;100.00
54808;BME280;40708;50.364;7.550;2022-09-09T14:28:51;99723.38;;;23.84;100.00